Time;durP1;ratioP1;P1;durP2;ratioP2;P2;SDS_P1;SDS_P2;PMS_P1;PMS_P2;Temp;Humidity;BMP_temperature;BMP_pressure;BME280_temperature;BME280_humidity;BME280_pressure;Samples;Min_cycle;Max_cycle;Signal;HPM_P1;HPM_P2
2023/01/25 00:01:50;;;;;;;20.40;12.90;;;;;;;2.00;100.00;100997.09;5094644;28;20228;-79
2023/01/25 00:04:19;;;;;;;17.37;11.20;;;;;;;2.04;100.00;100984.91;5087142;28;20212;-78
2023/01/25 00:06:49;;;;;;;17.47;11.53;;;;;;;2.27;100.00;100989.25;5090078;28;20739;-79
2023/01/25 00:09:18;;;;;;;18.17;11.67;;;;;;;2.28;100.00;100977.03;5090402;28;20210;-79
2023/01/25 00:11:47;;;;;;;17.20;10.93;;;;;;;2.32;100.00;100976.19;5087599;28;20246;-79
2023/01/25 00:14:16;;;;;;;19.63;12.23;;;;;;;2.35;100.00;100981.41;5086127;28;20195;-81
2023/01/25 00:16:45;;;;;;;18.67;12.07;;;;;;;2.37;100.00;100974.41;5090083;28;20230;-79
2023/01/25 00:19:13;;;;;;;18.13;11.50;;;;;;;2.12;100.00;100975.28;5086160;28;20214;-79
2023/01/25 00:21:42;;;;;;;18.27;11.17;;;;;;;2.24;100.00;100972.69;5085311;28;20237;-78
2023/01/25 00:24:13;;;;;;;16.73;10.67;;;;;;;2.20;100.00;100973.56;5088932;28;20223;-78
2023/01/25 00:26:43;;;;;;;19.37;11.93;;;;;;;2.42;100.00;100975.28;5083319;28;20229;-79
2023/01/25 00:29:14;;;;;;;19.40;11.67;;;;;;;2.34;100.00;100970.94;5090321;28;20192;-78
2023/01/25 00:31:50;;;;;;;17.93;10.73;;;;;;;2.29;100.00;100965.72;5094455;28;20192;-79
2023/01/25 00:34:44;;;;;;;14.83;10.00;;;;;;;2.31;100.00;100971.81;5026910;28;20201;-79
2023/01/25 00:37:21;;;;;;;16.53;10.23;;;;;;;2.20;100.00;100965.72;5032450;28;20205;-79
2023/01/25 00:39:50;;;;;;;15.37;9.53;;;;;;;2.17;100.00;100963.13;5023218;28;20200;-79
2023/01/25 00:42:20;;;;;;;14.67;9.83;;;;;;;2.20;100.00;100969.19;5031976;28;20244;-78
2023/01/25 00:44:49;;;;;;;15.43;10.13;;;;;;;2.01;100.00;100960.50;5025079;28;20723;-80
2023/01/25 00:47:18;;;;;;;15.37;10.07;;;;;;;2.02;100.00;100966.59;5027965;28;20803;-79
2023/01/25 00:49:47;;;;;;;17.07;10.37;;;;;;;2.00;100.00;100956.13;5027027;28;20194;-79
2023/01/25 00:52:15;;;;;;;15.80;10.83;;;;;;;1.91;100.00;100961.38;5052723;28;20200;-78
2023/01/25 00:54:44;;;;;;;18.10;10.67;;;;;;;1.98;100.00;100960.50;5092905;28;20199;-79
2023/01/25 00:57:13;;;;;;;16.33;10.60;;;;;;;2.17;100.00;100958.75;5094411;28;20200;-79
2023/01/25 00:59:43;;;;;;;18.27;10.77;;;;;;;2.11;100.00;100950.91;5095264;28;20200;-78
2023/01/25 01:02:12;;;;;;;20.23;11.80;;;;;;;2.09;100.00;100957.00;5091993;28;20289;-78
2023/01/25 01:04:40;;;;;;;17.90;11.30;;;;;;;2.15;100.00;100959.63;5089184;28;20650;-78
2023/01/25 01:07:08;;;;;;;17.17;11.10;;;;;;;2.17;100.00;100960.50;5086958;28;20219;-78
2023/01/25 01:09:37;;;;;;;16.60;10.43;;;;;;;2.16;100.00;100956.16;5093478;28;20192;-78
2023/01/25 01:12:05;;;;;;;17.53;10.57;;;;;;;2.22;100.00;100950.88;5092588;28;20199;-78
2023/01/25 01:14:35;;;;;;;17.60;10.67;;;;;;;2.00;100.00;100955.28;5087924;28;20200;-78
2023/01/25 01:17:04;;;;;;;17.93;9.97;;;;;;;2.15;100.00;100959.63;5087860;28;20192;-79
2023/01/25 01:19:32;;;;;;;16.00;10.33;;;;;;;1.81;100.00;100950.91;5092111;28;20199;-79
2023/01/25 01:22:00;;;;;;;16.83;10.20;;;;;;;1.99;100.00;100958.75;5087594;28;20253;-79
2023/01/25 01:24:29;;;;;;;17.30;10.70;;;;;;;2.12;100.00;100951.78;5093307;28;20201;-78
2023/01/25 01:26:58;;;;;;;16.53;10.50;;;;;;;2.04;100.00;100945.72;5088992;28;20200;-78
2023/01/25 01:29:26;;;;;;;17.10;10.50;;;;;;;2.12;100.00;100950.03;5092302;28;20647;-79
2023/01/25 01:31:56;;;;;;;18.33;10.70;;;;;;;2.26;100.00;100948.28;5088645;28;20245;-78
2023/01/25 01:34:24;;;;;;;18.67;11.00;;;;;;;2.17;100.00;100950.03;5089373;28;20274;-79
2023/01/25 01:36:52;;;;;;;17.20;10.30;;;;;;;2.05;100.00;100957.91;5089288;28;20195;-79
2023/01/25 01:39:21;;;;;;;17.73;10.80;;;;;;;2.16;100.00;100953.53;5090327;28;20195;-80
2023/01/25 01:41:49;;;;;;;18.00;10.90;;;;;;;2.08;100.00;100955.28;5093224;28;20183;-79
2023/01/25 01:44:21;;;;;;;19.53;11.47;;;;;;;2.07;100.00;100954.41;5085347;28;20208;-79
2023/01/25 01:46:53;;;;;;;16.50;11.03;;;;;;;2.21;100.00;100962.22;5090369;28;20218;-80
2023/01/25 01:49:26;;;;;;;18.97;12.07;;;;;;;2.26;100.00;100958.75;5094059;27;20245;-79
2023/01/25 01:52:01;;;;;;;19.87;11.90;;;;;;;2.19;100.00;100961.38;5093369;28;20194;-79
2023/01/25 01:54:33;;;;;;;18.90;11.90;;;;;;;2.13;100.00;100957.03;5089585;28;20696;-79
2023/01/25 01:57:07;;;;;;;19.33;12.13;;;;;;;2.07;100.00;100961.38;5093087;28;20203;-79
2023/01/25 01:59:44;;;;;;;17.97;10.20;;;;;;;2.25;100.00;100961.38;5026436;28;20233;-79
2023/01/25 02:02:13;;;;;;;17.23;10.07;;;;;;;2.20;100.00;100960.50;4992398;28;20229;-79
2023/01/25 02:04:46;;;;;;;15.90;9.97;;;;;;;2.15;100.00;100951.78;5029145;28;20262;-79
2023/01/25 02:07:20;;;;;;;16.43;9.97;;;;;;;2.13;100.00;100958.78;5026768;28;20194;-79
2023/01/25 02:09:50;;;;;;;15.87;9.80;;;;;;;1.98;100.00;100957.88;5032244;28;20252;-79
2023/01/25 02:12:21;;;;;;;15.67;9.77;;;;;;;2.05;100.00;100960.50;5022164;28;20185;-79
2023/01/25 02:14:51;;;;;;;19.60;11.37;;;;;;;1.85;100.00;100952.69;5026822;28;20193;-79
2023/01/25 02:17:23;;;;;;;19.40;11.50;;;;;;;1.60;100.00;100947.41;5026810;28;20209;-79
2023/01/25 02:19:59;;;;;;;19.43;11.67;;;;;;;1.72;100.00;100949.16;5029248;28;20189;-79
2023/01/25 02:22:36;;;;;;;20.37;12.83;;;;;;;1.60;100.00;100944.81;5027640;28;20193;-79
2023/01/25 02:25:08;;;;;;;18.73;11.27;;;;;;;1.62;100.00;100940.44;5076477;28;20183;-78
2023/01/25 02:27:41;;;;;;;17.33;10.77;;;;;;;1.81;100.00;100943.06;5085731;28;20249;-79
2023/01/25 02:30:10;;;;;;;17.07;10.73;;;;;;;1.72;100.00;100942.19;5088687;28;20245;-79
2023/01/25 02:32:39;;;;;;;18.83;10.20;;;;;;;1.90;100.00;100943.94;5091176;28;20199;-80
2023/01/25 02:35:08;;;;;;;15.13;10.30;;;;;;;1.81;100.00;100938.72;5080454;28;20203;-80
2023/01/25 02:37:37;;;;;;;16.03;9.53;;;;;;;1.93;100.00;100943.97;5090018;28;20192;-81
2023/01/25 02:40:11;;;;;;;21.00;10.97;;;;;;;1.90;100.00;100943.06;5088691;28;20204;-80
2023/01/25 02:42:44;;;;;;;15.77;9.73;;;;;;;1.98;100.00;100943.97;5088786;28;20275;-80
2023/01/25 02:45:19;;;;;;;18.87;11.40;;;;;;;2.00;100.00;100942.22;5092542;28;20223;-80
2023/01/25 02:47:48;;;;;;;17.33;10.30;;;;;;;1.83;100.00;100939.59;5089759;28;20191;-80
2023/01/25 02:50:17;;;;;;;14.53;9.33;;;;;;;1.71;100.00;100950.03;5088787;28;20199;-80
2023/01/25 02:52:45;;;;;;;18.77;11.13;;;;;;;1.72;100.00;100941.31;5088555;28;20200;-80
2023/01/25 02:55:15;;;;;;;19.90;11.57;;;;;;;1.63;100.00;100936.97;5092083;28;20378;-80
2023/01/25 02:57:44;;;;;;;18.40;10.70;;;;;;;1.64;100.00;100928.28;5044852;28;20205;-80
2023/01/25 03:00:13;;;;;;;23.10;12.87;;;;;;;1.81;100.00;100933.50;5047452;28;20201;-80
2023/01/25 03:02:41;;;;;;;20.50;12.30;;;;;;;1.62;100.00;100930.00;5044749;28;20224;-81
2023/01/25 03:05:10;;;;;;;23.03;13.53;;;;;;;1.71;100.00;100932.63;5041651;28;20235;-80
2023/01/25 03:07:40;;;;;;;22.07;13.17;;;;;;;1.80;100.00;100921.31;5047385;28;20201;-80
2023/01/25 03:10:10;;;;;;;23.20;13.00;;;;;;;1.72;100.00;100926.53;5047969;28;20193;-80
2023/01/25 03:12:41;;;;;;;23.43;13.20;;;;;;;1.68;100.00;100916.97;5045107;28;20652;-79
2023/01/25 03:15:10;;;;;;;22.23;12.07;;;;;;;1.87;100.00;100920.44;5057477;28;20608;-80
2023/01/25 03:17:38;;;;;;;23.30;13.40;;;;;;;1.86;100.00;100908.25;5089327;28;20195;-80
2023/01/25 03:20:07;;;;;;;21.60;12.50;;;;;;;1.79;100.00;100911.72;5090480;28;20196;-80
2023/01/25 03:22:35;;;;;;;23.60;12.80;;;;;;;1.72;100.00;100907.38;5095049;28;20199;-80
2023/01/25 03:25:05;;;;;;;21.23;10.60;;;;;;;1.86;100.00;100899.56;5092482;28;20226;-80
2023/01/25 03:27:34;;;;;;;21.40;12.33;;;;;;;1.69;100.00;100905.63;5096502;28;20249;-80
2023/01/25 03:30:05;;;;;;;22.33;12.60;;;;;;;1.76;100.00;100896.06;5091512;28;20219;-80
2023/01/25 03:32:33;;;;;;;18.73;11.13;;;;;;;1.88;100.00;100896.06;5095556;28;20194;-80
2023/01/25 03:35:02;;;;;;;18.83;11.63;;;;;;;1.85;100.00;100895.19;5088406;28;20207;-80
2023/01/25 03:37:30;;;;;;;19.20;11.17;;;;;;;1.93;100.00;100889.09;5095825;28;20248;-80
2023/01/25 03:39:59;;;;;;;16.30;10.20;;;;;;;1.88;100.00;100888.22;5092080;28;20241;-80
2023/01/25 03:42:27;;;;;;;17.97;10.40;;;;;;;1.97;100.00;100889.97;5093886;28;20191;-80
2023/01/25 03:44:55;;;;;;;19.47;10.37;;;;;;;1.92;100.00;100881.25;5095174;28;20658;-79
2023/01/25 03:47:25;;;;;;;17.97;9.87;;;;;;;1.81;100.00;100875.16;5088559;28;20211;-80
2023/01/25 03:49:53;;;;;;;16.43;10.30;;;;;;;1.83;100.00;100884.72;5088263;28;20216;-80
2023/01/25 03:52:23;;;;;;;16.80;10.07;;;;;;;1.78;100.00;100886.47;5089882;28;20204;-80
2023/01/25 03:54:51;;;;;;;15.63;9.70;;;;;;;1.80;100.00;100881.25;5092594;28;20237;-80
2023/01/25 03:57:21;;;;;;;17.43;10.03;;;;;;;1.73;100.00;100878.63;5090755;28;20199;-80
2023/01/25 03:59:49;;;;;;;20.13;9.93;;;;;;;1.83;100.00;100879.50;5094304;28;20677;-80
2023/01/25 04:02:17;;;;;;;17.23;10.07;;;;;;;1.81;100.00;100883.88;5094895;28;20296;-80
2023/01/25 04:04:48;;;;;;;19.43;10.50;;;;;;;1.83;100.00;100883.84;5067455;28;20192;-80
2023/01/25 04:07:16;;;;;;;17.23;9.93;;;;;;;1.67;100.00;100876.03;5095146;28;20342;-80
2023/01/25 04:09:44;;;;;;;16.83;9.50;;;;;;;1.76;100.00;100875.19;5094834;28;20211;-80
2023/01/25 04:12:12;;;;;;;16.20;9.93;;;;;;;1.66;100.00;100879.53;5094980;28;20200;-80
2023/01/25 04:14:40;;;;;;;15.80;9.80;;;;;;;1.69;100.00;100869.06;5089811;28;20203;-79
2023/01/25 04:17:12;;;;;;;16.57;9.87;;;;;;;1.91;100.00;100871.66;5093600;28;20223;-80
2023/01/25 04:19:41;;;;;;;17.40;10.20;;;;;;;1.89;100.00;100869.06;5090767;28;20191;-80
2023/01/25 04:22:14;;;;;;;13.20;8.43;;;;;;;1.99;100.00;100862.06;5095050;28;20203;-80
2023/01/25 04:24:43;;;;;;;16.93;9.60;;;;;;;1.86;100.00;100855.13;5094516;28;20199;-79
2023/01/25 04:27:11;;;;;;;15.13;9.47;;;;;;;1.93;100.00;100859.47;5090254;28;20253;-80
2023/01/25 04:29:40;;;;;;;14.73;9.13;;;;;;;1.98;100.00;100855.97;5090031;28;20678;-80
2023/01/25 04:32:09;;;;;;;19.53;10.53;;;;;;;1.93;100.00;100855.13;5088742;28;20188;-79
2023/01/25 04:34:37;;;;;;;16.80;10.83;;;;;;;2.06;100.00;100844.66;5090128;28;20244;-80
2023/01/25 04:37:06;;;;;;;17.93;10.60;;;;;;;2.01;100.00;100855.09;5089879;28;20720;-79
2023/01/25 04:39:36;;;;;;;18.30;10.87;;;;;;;2.03;100.00;100837.69;5084206;28;20208;-80
2023/01/25 04:42:04;;;;;;;17.10;10.40;;;;;;;1.83;100.00;100842.94;5092298;28;20191;-79
2023/01/25 04:44:33;;;;;;;17.70;10.30;;;;;;;2.03;100.00;100824.63;5095807;27;20192;-79
2023/01/25 04:47:02;;;;;;;15.63;9.67;;;;;;;1.96;100.00;100829.00;5095107;28;20194;-79
2023/01/25 04:49:31;;;;;;;16.53;10.43;;;;;;;1.99;100.00;100815.91;5091263;28;20223;-80
2023/01/25 04:51:59;;;;;;;19.83;11.03;;;;;;;2.09;100.00;100819.38;5092184;28;20200;-80
2023/01/25 04:54:27;;;;;;;19.50;10.30;;;;;;;2.10;100.00;100812.41;5086738;28;20204;-80
2023/01/25 04:56:57;;;;;;;17.93;10.97;;;;;;;2.13;100.00;100809.78;5094227;28;20192;-80
2023/01/25 04:59:25;;;;;;;19.23;11.20;;;;;;;2.09;100.00;100815.88;5094262;28;20203;-80
2023/01/25 05:01:54;;;;;;;26.57;15.63;;;;;;;2.13;100.00;100809.78;5093773;28;20188;-80
2023/01/25 05:04:22;;;;;;;19.57;10.70;;;;;;;1.92;100.00;100806.34;5005292;28;20210;-81
2023/01/25 05:06:51;;;;;;;18.60;11.83;;;;;;;1.83;100.00;100806.34;5009171;28;20232;-80
2023/01/25 05:09:21;;;;;;;20.17;11.07;;;;;;;1.84;100.00;100817.69;5004980;28;20218;-80
2023/01/25 05:11:49;;;;;;;18.47;10.90;;;;;;;1.73;100.00;100807.25;5011605;28;20202;-80
2023/01/25 05:14:18;;;;;;;17.00;10.83;;;;;;;1.83;100.00;100806.34;5009440;28;20186;-79
2023/01/25 05:16:47;;;;;;;19.77;12.90;;;;;;;1.78;100.00;100805.50;5008210;28;20202;-80
2023/01/25 05:19:15;;;;;;;18.17;11.20;;;;;;;1.76;100.00;100804.66;5006861;28;20210;-80
2023/01/25 05:22:00;;;;;;;15.87;9.73;;;;;;;1.77;100.00;100801.16;5025118;28;20188;-80
2023/01/25 05:24:30;;;;;;;18.57;11.27;;;;;;;1.75;100.00;100805.53;5092776;28;20287;-80
2023/01/25 05:27:02;;;;;;;17.83;11.30;;;;;;;1.86;100.00;100810.72;5093693;28;20345;-80
2023/01/25 05:29:36;;;;;;;19.60;11.67;;;;;;;1.94;100.00;100809.84;5093450;28;20709;-80
2023/01/25 05:32:04;;;;;;;19.60;11.10;;;;;;;1.83;100.00;100808.97;5093166;28;20221;-80
2023/01/25 05:34:34;;;;;;;19.60;11.67;;;;;;;1.83;100.00;100801.13;5092110;28;20206;-80
2023/01/25 05:37:03;;;;;;;16.40;10.33;;;;;;;1.94;100.00;100802.00;5093312;28;20248;-80
2023/01/25 05:39:32;;;;;;;17.70;10.87;;;;;;;1.80;100.00;100806.38;5093569;28;20191;-80
2023/01/25 05:42:00;;;;;;;19.17;11.77;;;;;;;1.85;100.00;100798.53;5084943;28;20328;-80
2023/01/25 05:44:28;;;;;;;24.87;18.90;;;;;;;1.88;100.00;100791.56;5071390;28;20279;-80
2023/01/25 05:46:58;;;;;;;23.93;15.47;;;;;;;1.78;100.00;100791.56;5092955;28;20188;-79
2023/01/25 05:49:27;;;;;;;16.10;10.23;;;;;;;1.75;100.00;100802.91;5086360;28;20227;-80
2023/01/25 05:51:56;;;;;;;20.73;13.90;;;;;;;1.77;100.00;100803.78;5050630;28;20197;-80
2023/01/25 05:54:24;;;;;;;20.90;12.93;;;;;;;1.72;100.00;100806.38;5045572;28;20197;-80
2023/01/25 05:56:53;;;;;;;21.57;15.03;;;;;;;1.72;100.00;100803.75;5045701;28;20258;-80
2023/01/25 05:59:21;;;;;;;18.93;13.07;;;;;;;1.81;100.00;100809.84;5046319;28;20266;-80
2023/01/25 06:01:49;;;;;;;19.97;11.37;;;;;;;1.86;100.00;100805.50;5047004;28;20660;-79
2023/01/25 06:04:20;;;;;;;19.93;12.27;;;;;;;1.67;100.00;100808.13;5047095;28;20260;-80
2023/01/25 06:06:48;;;;;;;25.30;16.67;;;;;;;1.71;100.00;100812.47;5040200;28;20331;-80
2023/01/25 06:09:17;;;;;;;18.30;12.17;;;;;;;1.76;100.00;100799.41;5056740;28;20188;-80
2023/01/25 06:11:45;;;;;;;19.30;10.93;;;;;;;1.73;100.00;100796.78;5087450;28;20277;-80
2023/01/25 06:14:14;;;;;;;24.50;12.80;;;;;;;1.81;100.00;100802.00;5088949;28;20203;-80
2023/01/25 06:16:42;;;;;;;19.03;11.40;;;;;;;1.86;100.00;100802.88;5087752;28;20226;-79
2023/01/25 06:19:13;;;;;;;21.00;12.13;;;;;;;1.90;100.00;100807.22;5091426;28;20453;-80
2023/01/25 06:21:42;;;;;;;19.43;10.67;;;;;;;1.88;100.00;100799.38;5094622;28;20211;-80
2023/01/25 06:24:11;;;;;;;22.77;12.33;;;;;;;1.68;100.00;100806.41;5086428;28;20200;-80
2023/01/25 06:26:40;;;;;;;20.30;11.73;;;;;;;1.75;100.00;100802.91;5008071;28;20194;-80
2023/01/25 06:29:08;;;;;;;18.77;11.43;;;;;;;1.61;100.00;100800.28;5005370;28;20245;-80
2023/01/25 06:31:38;;;;;;;24.40;14.33;;;;;;;1.55;100.00;100808.16;5010640;28;20264;-80
2023/01/25 06:34:07;;;;;;;25.40;17.70;;;;;;;1.59;100.00;100803.78;5008572;28;20234;-80
2023/01/25 06:36:36;;;;;;;25.73;17.23;;;;;;;1.54;100.00;100811.63;5008264;28;20700;-79
2023/01/25 06:39:08;;;;;;;23.60;14.77;;;;;;;1.29;100.00;100804.69;5010652;28;20205;-80
2023/01/25 06:41:37;;;;;;;27.50;16.80;;;;;;;1.27;100.00;100812.50;5003296;28;20230;-80
2023/01/25 06:44:05;;;;;;;24.77;15.07;;;;;;;1.39;100.00;100816.84;5020575;28;20200;-80
2023/01/25 06:46:34;;;;;;;19.43;10.67;;;;;;;1.29;100.00;100815.13;5091533;28;20195;-80
2023/01/25 06:49:02;;;;;;;15.00;8.90;;;;;;;1.34;100.00;100800.31;5089048;28;20298;-80
2023/01/25 06:51:30;;;;;;;19.47;9.63;;;;;;;1.40;100.00;100810.75;5085257;28;20265;-80
2023/01/25 06:54:03;;;;;;;20.87;12.73;;;;;;;1.45;100.00;100806.44;5087699;28;20200;-79
2023/01/25 06:56:32;;;;;;;19.00;11.40;;;;;;;1.34;100.00;100806.41;5093775;28;20697;-80
2023/01/25 06:59:01;;;;;;;19.60;9.90;;;;;;;1.42;100.00;100804.66;5096341;28;20188;-80
2023/01/25 07:01:29;;;;;;;18.33;10.10;;;;;;;1.40;100.00;100805.53;5091070;28;20192;-80
2023/01/25 07:03:59;;;;;;;18.00;10.90;;;;;;;1.51;100.00;100809.00;5047375;28;20299;-80
2023/01/25 07:06:32;;;;;;;20.17;11.77;;;;;;;1.48;100.00;100805.53;5049627;28;20205;-80
2023/01/25 07:09:04;;;;;;;20.33;11.53;;;;;;;1.51;100.00;100806.41;5053849;28;20675;-80
2023/01/25 07:11:34;;;;;;;22.93;13.97;;;;;;;1.51;100.00;100805.53;5053539;28;20275;-80
2023/01/25 07:14:02;;;;;;;18.20;10.80;;;;;;;1.55;100.00;100805.56;5050149;28;20213;-80
2023/01/25 07:16:35;;;;;;;15.40;8.67;;;;;;;1.59;100.00;100795.97;5047560;28;20197;-80
2023/01/25 07:19:04;;;;;;;14.83;8.80;;;;;;;1.59;100.00;100801.19;5051109;28;20201;-80
2023/01/25 07:21:33;;;;;;;16.17;8.57;;;;;;;1.43;100.00;100790.72;5050253;28;20193;-81
2023/01/25 07:24:03;;;;;;;16.57;9.03;;;;;;;1.43;100.00;100787.25;5050780;28;20348;-80
2023/01/25 07:26:33;;;;;;;18.43;10.83;;;;;;;1.20;100.00;100787.28;5047992;28;20189;-80
2023/01/25 07:29:01;;;;;;;20.03;11.20;;;;;;;1.27;100.00;100782.94;5053801;28;20193;-80
2023/01/25 07:31:33;;;;;;;18.27;9.70;;;;;;;1.40;100.00;100788.13;5052648;28;20243;-79
2023/01/25 07:34:01;;;;;;;17.93;10.40;;;;;;;1.51;100.00;100788.13;5049905;28;20211;-80
2023/01/25 07:36:29;;;;;;;18.73;9.97;;;;;;;1.38;100.00;100789.03;5088418;28;20332;-79
2023/01/25 07:38:58;;;;;;;18.70;10.67;;;;;;;1.34;100.00;100789.88;5090999;28;20195;-79
2023/01/25 07:41:27;;;;;;;19.83;10.33;;;;;;;1.48;100.00;100787.28;5095302;28;20196;-79
2023/01/25 07:43:57;;;;;;;17.40;9.33;;;;;;;1.28;100.00;100780.31;5090385;28;20690;-79
2023/01/25 07:46:26;;;;;;;18.97;9.97;;;;;;;1.30;100.00;100770.75;5095406;28;20199;-80
2023/01/25 07:48:55;;;;;;;17.80;10.37;;;;;;;1.25;100.00;100776.81;5093645;28;20192;-80
2023/01/25 07:51:25;;;;;;;16.20;9.57;;;;;;;1.24;100.00;100782.91;5088225;28;20211;-79
2023/01/25 07:53:56;;;;;;;15.00;9.27;;;;;;;1.31;100.00;100776.84;5091400;28;20283;-79
2023/01/25 07:56:26;;;;;;;20.37;10.93;;;;;;;1.27;100.00;100780.31;5090483;28;20195;-80
2023/01/25 07:58:55;;;;;;;15.60;9.73;;;;;;;1.38;100.00;100776.84;5091483;28;20199;-80
2023/01/25 08:01:27;;;;;;;17.17;10.30;;;;;;;1.27;100.00;100778.59;5091349;28;20271;-81
2023/01/25 08:03:56;;;;;;;16.73;9.87;;;;;;;1.33;100.00;100780.31;5113506;28;20705;-80
2023/01/25 08:06:29;;;;;;;15.93;9.30;;;;;;;1.02;100.00;100782.03;5105018;28;20743;-79
2023/01/25 08:08:58;;;;;;;17.57;10.13;;;;;;;1.24;100.00;100789.00;5106457;28;20341;-80
2023/01/25 08:11:29;;;;;;;14.53;8.60;;;;;;;1.12;100.00;100794.22;5111775;28;20211;-80
2023/01/25 08:13:57;;;;;;;18.40;9.93;;;;;;;0.81;100.00;100788.09;5106918;28;20210;-80
2023/01/25 08:16:30;;;;;;;17.97;9.70;;;;;;;0.93;100.00;100788.13;5106473;28;20248;-79
2023/01/25 08:19:00;;;;;;;16.20;9.30;;;;;;;1.07;100.00;100785.53;5127562;27;20190;-80
2023/01/25 08:21:29;;;;;;;18.30;9.40;;;;;;;1.14;100.00;100779.44;5130689;27;20198;-80
2023/01/25 08:24:02;;;;;;;18.93;10.43;;;;;;;1.17;100.00;100783.81;5129898;27;20198;-80
2023/01/25 08:26:32;;;;;;;18.23;10.50;;;;;;;1.33;100.00;100789.00;5128943;27;20198;-80
2023/01/25 08:29:01;;;;;;;19.67;11.57;;;;;;;1.15;100.00;100786.38;5129568;27;20643;-80
2023/01/25 08:31:35;;;;;;;16.23;9.30;;;;;;;1.22;100.00;100785.53;5133387;27;20218;-80
2023/01/25 08:34:05;;;;;;;18.10;9.87;;;;;;;1.39;100.00;100783.78;5137120;27;20193;-80
2023/01/25 08:36:34;;;;;;;16.80;9.20;;;;;;;1.29;100.00;100787.28;5136225;27;20278;-80
2023/01/25 08:39:05;;;;;;;17.73;10.17;;;;;;;1.33;100.00;100781.16;5128009;27;20235;-80
2023/01/25 08:41:36;;;;;;;18.97;10.03;;;;;;;1.35;100.00;100775.94;5100459;27;20255;-79
2023/01/25 08:44:04;;;;;;;18.93;9.77;;;;;;;1.47;100.00;100775.97;5128765;27;20240;-80
2023/01/25 08:46:34;;;;;;;17.33;9.23;;;;;;;1.46;100.00;100779.44;5133577;27;20197;-81
2023/01/25 08:49:03;;;;;;;18.20;10.13;;;;;;;1.31;100.00;100767.25;5130122;27;20194;-80
2023/01/25 08:51:32;;;;;;;20.50;11.53;;;;;;;0.99;100.00;100782.91;5137711;27;20237;-81
2023/01/25 08:54:04;;;;;;;18.97;10.33;;;;;;;1.31;100.00;100782.06;5128373;27;20187;-80
2023/01/25 08:56:33;;;;;;;20.40;11.07;;;;;;;1.27;100.00;100780.31;5131914;27;20190;-81
2023/01/25 08:59:01;;;;;;;19.03;10.37;;;;;;;1.27;100.00;100777.72;5133228;27;20264;-80
2023/01/25 09:01:30;;;;;;;21.70;10.73;;;;;;;1.37;100.00;100769.00;5135189;27;20198;-81
2023/01/25 09:04:00;;;;;;;20.07;10.90;;;;;;;1.40;100.00;100775.09;5124198;27;20230;-80
2023/01/25 09:06:28;;;;;;;17.10;10.23;;;;;;;1.38;100.00;100771.63;5126180;27;20281;-81
2023/01/25 09:08:58;;;;;;;21.20;11.33;;;;;;;1.19;100.00;100767.28;5131838;27;20194;-80
2023/01/25 09:11:27;;;;;;;20.23;11.20;;;;;;;1.27;100.00;100762.91;5132000;27;20210;-80
2023/01/25 09:13:56;;;;;;;21.70;13.33;;;;;;;1.05;100.00;100767.25;5131558;27;20261;-80
2023/01/25 09:16:29;;;;;;;20.20;10.17;;;;;;;1.26;100.00;100758.56;5134570;27;20195;-80
2023/01/25 09:19:01;;;;;;;17.10;10.17;;;;;;;1.06;100.00;100755.97;5125563;27;20205;-80
2023/01/25 09:21:30;;;;;;;19.60;11.93;;;;;;;1.26;100.00;100757.72;5129362;27;20270;-81
2023/01/25 09:23:59;;;;;;;15.37;9.00;;;;;;;1.35;100.00;100755.06;5134454;27;20209;-80
2023/01/25 09:26:38;;;;;;;19.90;10.27;;;;;;;1.36;100.00;100749.88;5132777;27;20247;-81
2023/01/25 09:29:07;;;;;;;16.93;9.50;;;;;;;1.22;100.00;100748.13;5128812;27;20301;-81
2023/01/25 09:31:38;;;;;;;15.67;8.83;;;;;;;1.24;100.00;100743.75;5127189;27;20218;-80
2023/01/25 09:34:10;;;;;;;16.17;9.23;;;;;;;1.25;100.00;100742.88;5126965;27;20202;-80
2023/01/25 09:36:39;;;;;;;14.83;8.67;;;;;;;1.07;100.00;100749.00;5128526;27;20317;-81
2023/01/25 09:39:10;;;;;;;16.87;10.20;;;;;;;1.22;100.00;100749.00;5127233;27;20263;-80
2023/01/25 09:42:01;;;;;;;16.50;10.27;;;;;;;1.25;100.00;100746.38;5131366;27;20183;-80
2023/01/25 09:45:03;;;;;;;19.67;10.80;;;;;;;1.25;100.00;100738.53;5131717;27;20190;-81
2023/01/25 09:47:41;;;;;;;19.90;11.60;;;;;;;1.36;100.00;100723.75;5129368;27;20194;-81
2023/01/25 09:50:34;;;;;;;16.50;10.57;;;;;;;1.56;100.00;100723.72;5075322;27;20202;-80
2023/01/25 09:53:23;;;;;;;16.70;10.33;;;;;;;1.55;100.00;100724.59;5118913;27;20218;-79
2023/01/25 09:55:54;;;;;;;17.33;10.33;;;;;;;1.50;100.00;100728.09;5131016;27;20183;-80
2023/01/25 09:58:29;;;;;;;13.60;8.50;;;;;;;1.54;100.00;100714.13;5126621;27;20326;-80
2023/01/25 10:01:11;;;;;;;16.73;9.37;;;;;;;1.05;100.00;100717.69;5128415;27;20201;-80
2023/01/25 10:03:48;;;;;;;16.27;8.80;;;;;;;1.26;100.00;100710.72;5129686;27;20228;-80
2023/01/25 10:06:23;;;;;;;16.00;9.40;;;;;;;1.43;100.00;100715.03;5121397;27;20223;-80
2023/01/25 10:08:57;;;;;;;16.47;10.40;;;;;;;1.36;100.00;100707.25;5129507;27;20202;-80
2023/01/25 10:11:28;;;;;;;17.17;9.70;;;;;;;1.39;100.00;100709.81;5130702;27;20194;-80
2023/01/25 10:13:58;;;;;;;30.23;15.77;;;;;;;1.55;100.00;100708.94;5129830;27;20221;-80
2023/01/25 10:16:31;;;;;;;27.57;14.70;;;;;;;1.55;100.00;100702.84;5131607;27;20190;-80
2023/01/25 10:19:16;;;;;;;25.57;14.27;;;;;;;1.39;100.00;100702.00;5127225;27;20202;-79
2023/01/25 10:21:49;;;;;;;18.10;11.13;;;;;;;1.38;100.00;100698.53;5126157;27;20641;-80
2023/01/25 10:24:49;;;;;;;18.17;10.27;;;;;;;1.47;100.00;100695.03;5123658;27;20198;-80
2023/01/25 10:27:31;;;;;;;15.83;9.67;;;;;;;1.64;100.00;100692.34;5130450;27;20695;-80
2023/01/25 10:30:02;;;;;;;15.20;9.00;;;;;;;1.60;100.00;100688.03;5129190;27;20229;-80
2023/01/25 10:32:33;;;;;;;17.53;11.20;;;;;;;1.28;100.00;100685.50;5129770;27;20263;-80
2023/01/25 10:35:15;;;;;;;15.73;9.53;;;;;;;1.51;100.00;100683.69;5125309;27;20623;-79
2023/01/25 10:38:05;;;;;;;18.57;12.27;;;;;;;1.33;100.00;100683.72;5111835;28;20191;-79
2023/01/25 10:40:43;;;;;;;16.33;10.40;;;;;;;1.24;100.00;100679.38;5113157;28;20186;-79
2023/01/25 10:43:17;;;;;;;14.03;9.03;;;;;;;1.38;100.00;100677.63;5110284;28;20194;-80
2023/01/25 10:45:46;;;;;;;14.20;9.07;;;;;;;1.44;100.00;100674.13;5106148;28;20186;-80
2023/01/25 10:48:19;;;;;;;16.50;9.27;;;;;;;1.47;100.00;100670.66;5104445;28;20645;-80
2023/01/25 10:50:53;;;;;;;14.07;9.17;;;;;;;1.59;100.00;100666.25;5109486;28;20210;-80
2023/01/25 10:53:38;;;;;;;14.33;8.97;;;;;;;1.13;100.00;100655.06;5107374;28;20214;-80
2023/01/25 10:56:24;;;;;;;16.40;9.27;;;;;;;1.35;100.00;100662.00;5109986;28;20199;-80
2023/01/25 10:59:05;;;;;;;20.53;10.50;;;;;;;1.52;100.00;100663.66;5107324;28;20252;-80
2023/01/25 11:01:35;;;;;;;15.47;9.83;;;;;;;1.14;100.00;100656.78;5059236;28;20232;-79
2023/01/25 11:04:03;;;;;;;15.37;9.40;;;;;;;1.33;100.00;100648.06;5086003;28;20200;-80
2023/01/25 11:06:35;;;;;;;17.30;9.97;;;;;;;1.41;100.00;100645.44;5087373;28;20203;-81
2023/01/25 11:09:36;;;;;;;15.73;9.63;;;;;;;1.63;100.00;100649.69;5092020;28;20635;-80
2023/01/25 11:12:16;;;;;;;15.83;9.77;;;;;;;1.43;100.00;100639.31;5089637;28;20191;-80
2023/01/25 11:14:45;;;;;;;15.70;9.70;;;;;;;1.54;100.00;100628.84;5083272;28;20196;-80
2023/01/25 11:17:24;;;;;;;14.50;8.93;;;;;;;1.75;100.00;100627.03;5088356;28;20191;-80
2023/01/25 11:20:11;;;;;;;14.63;9.10;;;;;;;1.78;100.00;100613.97;5087759;28;20199;-80
2023/01/25 11:22:50;;;;;;;17.00;9.47;;;;;;;1.63;100.00;100620.09;5088954;28;20196;-80
2023/01/25 11:25:35;;;;;;;16.10;9.87;;;;;;;1.58;100.00;100611.44;5092043;28;20204;-80
2023/01/25 11:28:18;;;;;;;16.93;10.23;;;;;;;1.63;100.00;100604.44;5008730;28;20202;-80
2023/01/25 11:30:48;;;;;;;16.50;9.90;;;;;;;1.58;100.00;100599.25;5007582;28;20272;-80